Modoc, Georgia
Current Conditions -  °F | °C
As of 9:35 AM on Sunday 23 Nov 2014 (Local Time) from KSBO Reporting Station
Light Rain Light Rain  
Wind Chill: 61°   Ceiling: 500
Heat Index: 61°   Visibility: 5mi
Dew Point: 61°   Wind: 12mph
Humidity: 100%   Direction: 100°E
Pressure: 30.05"   Gusts: 16mph
Location:  32.5371°N, 82.3457°W
Report Text: KSBO 231435Z AUTO 10010G14KT 5SM -RA OVC005 16/16 A3005 RMK AO2
Loading
Personal Weather Stations






























Interactive Weather Map New forecast layout! Learn more

10-Day Weather Forecast

Advertisements
Track Severe Weather on mobile